Time;durP1;ratioP1;P1;durP2;ratioP2;P2;SDS_P1;SDS_P2;PMS_P1;PMS_P2;Temp;Humidity;BMP_temperature;BMP_pressure;BME280_temperature;BME280_humidity;BME280_pressure;Samples;Min_cycle;Max_cycle;Signal;HPM_P1;HPM_P2
2022/09/27 00:01:12;;;;;;;2.00;1.70;;;12.60;99.90;;;;;;4939200;29;20439;-70
2022/09/27 00:03:41;;;;;;;2.60;1.70;;;12.60;99.90;;;;;;4945244;29;20418;-68
2022/09/27 00:06:14;;;;;;;3.33;2.20;;;12.60;99.90;;;;;;4931442;29;20411;-70
2022/09/27 00:08:43;;;;;;;3.23;2.20;;;12.60;99.90;;;;;;4962854;23;20462;-70
2022/09/27 00:11:20;;;;;;;3.50;2.53;;;12.60;99.90;;;;;;5006642;28;20927;-70
2022/09/27 00:13:49;;;;;;;2.40;1.80;;;12.60;99.90;;;;;;5011281;28;20475;-71
2022/09/27 00:16:18;;;;;;;2.17;1.90;;;12.60;99.90;;;;;;4998592;28;20959;-69
2022/09/27 00:18:47;;;;;;;3.13;2.07;;;12.50;99.90;;;;;;4990268;28;20401;-71
2022/09/27 00:21:16;;;;;;;3.17;2.00;;;12.50;99.90;;;;;;4993287;28;20950;-71
2022/09/27 00:23:45;;;;;;;2.83;2.10;;;12.60;99.90;;;;;;4986567;28;20424;-71
2022/09/27 00:26:15;;;;;;;2.20;2.00;;;12.60;99.90;;;;;;4992993;28;20477;-71
2022/09/27 00:28:44;;;;;;;2.83;1.90;;;12.60;99.90;;;;;;4986677;28;20450;-71
2022/09/27 00:31:20;;;;;;;2.83;2.30;;;12.50;99.90;;;;;;4992899;28;20461;-70
2022/09/27 00:33:51;;;;;;;3.70;2.87;;;12.50;99.90;;;;;;4993096;28;20501;-72
2022/09/27 00:36:22;;;;;;;3.60;2.73;;;12.40;99.90;;;;;;4980010;28;20405;-72
2022/09/27 00:38:52;;;;;;;3.07;2.13;;;12.50;99.90;;;;;;4992854;28;20769;-70
2022/09/27 00:41:24;;;;;;;5.60;3.30;;;12.50;99.90;;;;;;4965215;28;20442;-70
2022/09/27 00:43:55;;;;;;;1.70;1.47;;;12.50;99.90;;;;;;4972844;28;20803;-71
2022/09/27 00:46:29;;;;;;;1.90;1.70;;;12.50;99.90;;;;;;4993297;28;20462;-70
2022/09/27 00:49:05;;;;;;;3.50;2.40;;;12.40;99.90;;;;;;4986716;28;20447;-70
2022/09/27 00:51:37;;;;;;;2.30;2.03;;;12.30;99.90;;;;;;4993284;28;20440;-70
2022/09/27 00:54:07;;;;;;;2.43;1.83;;;12.40;99.90;;;;;;4978422;28;20416;-70
2022/09/27 00:56:39;;;;;;;4.17;2.27;;;12.40;99.90;;;;;;4963486;28;20443;-71
2022/09/27 00:59:12;;;;;;;3.03;2.73;;;12.50;99.90;;;;;;4979190;28;20936;-70
2022/09/27 01:01:41;;;;;;;3.80;3.40;;;12.40;99.90;;;;;;4969316;28;20427;-71
2022/09/27 01:04:12;;;;;;;3.30;2.17;;;12.40;99.90;;;;;;4990614;28;20986;-71
2022/09/27 01:06:41;;;;;;;4.20;2.27;;;12.40;99.90;;;;;;4979172;28;20416;-71
2022/09/27 01:09:11;;;;;;;4.37;2.50;;;12.50;99.90;;;;;;4979579;28;20440;-71
2022/09/27 01:11:48;;;;;;;2.53;2.00;;;12.40;99.90;;;;;;4978302;28;20855;-70
2022/09/27 01:14:41;;;;;;;2.80;2.10;;;12.40;99.90;;;;;;4996424;28;21026;-71
2022/09/27 01:17:26;;;;;;;4.40;2.00;;;12.40;99.90;;;;;;4994960;28;20409;-71
2022/09/27 01:20:40;;;;;;;3.30;1.80;;;12.30;99.90;;;;;;4986465;28;20416;-71
2022/09/27 01:23:31;;;;;;;2.80;2.00;;;12.20;99.90;;;;;;4902586;28;20423;-71
2022/09/27 01:26:13;;;;;;;2.03;1.50;;;12.30;99.90;;;;;;4991076;28;20539;-71
2022/09/27 01:28:57;;;;;;;2.30;1.80;;;12.30;99.90;;;;;;4991950;28;20436;-71
2022/09/27 01:31:34;;;;;;;3.33;1.67;;;12.30;99.90;;;;;;4970171;28;20451;-70
2022/09/27 01:34:08;;;;;;;3.03;2.33;;;12.30;99.90;;;;;;4976289;28;20994;-71
2022/09/27 01:36:44;;;;;;;3.37;1.90;;;12.30;99.90;;;;;;4977427;28;20424;-71
2022/09/27 01:39:24;;;;;;;4.50;2.60;;;12.30;99.90;;;;;;4978665;28;20472;-71
2022/09/27 01:42:21;;;;;;;2.30;1.60;;;12.30;99.90;;;;;;4986508;28;20435;-71
2022/09/27 01:44:59;;;;;;;8.50;2.87;;;12.30;99.90;;;;;;4986781;28;20473;-69
2022/09/27 01:47:40;;;;;;;8.27;2.00;;;12.20;99.90;;;;;;4980937;28;20444;-70
2022/09/27 01:50:35;;;;;;;2.23;2.00;;;12.20;99.90;;;;;;4962839;28;20449;-70
2022/09/27 01:53:07;;;;;;;2.40;1.70;;;12.30;99.90;;;;;;4991655;28;20810;-70
2022/09/27 01:55:51;;;;;;;3.67;2.30;;;12.30;99.90;;;;;;4972567;28;20468;-70
2022/09/27 01:58:53;;;;;;;3.73;1.60;;;12.20;99.90;;;;;;4969465;28;20481;-70
2022/09/27 02:01:24;;;;;;;3.23;2.10;;;12.20;99.90;;;;;;4987495;28;20423;-69
2022/09/27 02:03:57;;;;;;;2.37;1.70;;;12.30;99.90;;;;;;4964007;28;20418;-70
2022/09/27 02:06:54;;;;;;;2.57;1.90;;;12.30;99.90;;;;;;4976048;28;20441;-71
2022/09/27 02:09:30;;;;;;;2.30;2.00;;;12.40;99.90;;;;;;4976763;28;21045;-70
2022/09/27 02:12:15;;;;;;;3.57;2.10;;;12.50;99.90;;;;;;4980145;28;20452;-70
2022/09/27 02:14:49;;;;;;;7.00;2.30;;;12.50;99.90;;;;;;4968160;28;20529;-70
2022/09/27 02:17:26;;;;;;;5.50;2.47;;;12.40;99.90;;;;;;4980731;28;20454;-71
2022/09/27 02:20:07;;;;;;;2.47;1.90;;;12.40;99.90;;;;;;4982392;28;20422;-72
2022/09/27 02:22:49;;;;;;;3.47;2.23;;;12.40;99.90;;;;;;4963329;28;20425;-71
2022/09/27 02:25:23;;;;;;;2.37;1.60;;;12.40;99.90;;;;;;4992480;28;20455;-70
2022/09/27 02:28:01;;;;;;;2.33;2.13;;;12.50;99.80;;;;;;4974795;28;20423;-72
2022/09/27 02:30:34;;;;;;;2.10;1.90;;;12.50;99.60;;;;;;4975708;28;20442;-70
2022/09/27 02:33:16;;;;;;;5.43;2.77;;;12.40;99.90;;;;;;4975376;28;20425;-71
2022/09/27 02:35:46;;;;;;;2.40;2.00;;;12.50;99.90;;;;;;4969617;28;20615;-70
2022/09/27 02:38:16;;;;;;;2.17;1.97;;;12.50;99.90;;;;;;4982408;28;20471;-70
2022/09/27 02:40:46;;;;;;;3.70;1.73;;;12.60;99.90;;;;;;4982449;28;20429;-71
2022/09/27 02:43:19;;;;;;;4.20;2.50;;;12.60;99.90;;;;;;4999427;28;20569;-70
2022/09/27 02:46:00;;;;;;;2.10;1.43;;;12.60;99.30;;;;;;4992738;28;20535;-71
2022/09/27 02:48:37;;;;;;;2.27;1.67;;;12.50;99.40;;;;;;4991204;28;20433;-71
2022/09/27 02:51:24;;;;;;;5.53;2.27;;;12.50;99.90;;;;;;4975176;28;20516;-70
2022/09/27 02:54:04;;;;;;;2.27;2.07;;;12.60;99.50;;;;;;4973116;28;20956;-71
2022/09/27 02:57:11;;;;;;;2.90;1.43;;;12.60;98.90;;;;;;4958590;28;20412;-71
2022/09/27 03:00:10;;;;;;;1.90;1.47;;;12.50;99.50;;;;;;4959399;28;20738;-71
2022/09/27 03:03:07;;;;;;;4.13;2.50;;;12.60;98.80;;;;;;4980363;28;20426;-70
2022/09/27 03:06:01;;;;;;;3.10;1.50;;;12.70;99.10;;;;;;4987457;28;20611;-70
2022/09/27 03:08:31;;;;;;;5.23;1.50;;;12.70;98.80;;;;;;4990051;28;20874;-70
2022/09/27 03:11:00;;;;;;;2.90;1.60;;;12.60;99.10;;;;;;4967504;28;20450;-71
2022/09/27 03:13:29;;;;;;;2.30;1.63;;;12.60;99.30;;;;;;4974167;28;20495;-71
2022/09/27 03:15:59;;;;;;;4.50;2.47;;;12.60;99.50;;;;;;4972373;28;20475;-71
2022/09/27 03:18:54;;;;;;;2.70;2.10;;;12.60;99.60;;;;;;4979923;28;20461;-71
2022/09/27 03:21:54;;;;;;;1.57;1.10;;;12.60;99.90;;;;;;4957453;28;20455;-70
2022/09/27 03:24:25;;;;;;;3.17;2.17;;;12.60;99.90;;;;;;4977264;28;20444;-71
2022/09/27 03:26:54;;;;;;;4.47;2.70;;;12.70;98.80;;;;;;4973480;28;20680;-71
2022/09/27 03:29:22;;;;;;;4.03;2.17;;;12.70;99.00;;;;;;4977056;28;20492;-71
2022/09/27 03:31:58;;;;;;;3.40;1.70;;;12.80;98.80;;;;;;4972049;28;20663;-72
2022/09/27 03:34:56;;;;;;;2.77;1.83;;;12.80;98.70;;;;;;4958307;28;20451;-71
2022/09/27 03:37:28;;;;;;;3.57;2.30;;;12.70;98.50;;;;;;4992903;28;20426;-72
2022/09/27 03:39:58;;;;;;;5.10;3.50;;;12.70;98.90;;;;;;4994895;28;20444;-71
2022/09/27 03:42:27;;;;;;;3.07;1.67;;;12.70;98.20;;;;;;4977676;28;20953;-71
2022/09/27 03:44:56;;;;;;;3.90;2.13;;;12.70;98.30;;;;;;4978146;28;20465;-71
2022/09/27 03:47:24;;;;;;;2.57;1.80;;;12.70;98.30;;;;;;4987097;28;20520;-70
2022/09/27 03:49:53;;;;;;;2.27;1.87;;;12.70;98.80;;;;;;4969647;28;20424;-71
2022/09/27 03:52:22;;;;;;;4.23;2.07;;;12.70;98.90;;;;;;4958267;28;20449;-70
2022/09/27 03:54:50;;;;;;;3.00;1.90;;;12.70;99.80;;;;;;4992792;28;20783;-70
2022/09/27 03:57:21;;;;;;;3.30;2.30;;;12.60;99.90;;;;;;4989994;28;20464;-71
2022/09/27 03:59:50;;;;;;;3.77;2.17;;;12.60;99.90;;;;;;4993618;28;20872;-71
2022/09/27 04:02:45;;;;;;;2.90;2.27;;;12.60;99.90;;;;;;4987119;28;20451;-70
2022/09/27 04:05:36;;;;;;;2.43;2.20;;;12.50;99.90;;;;;;4959896;28;20492;-70
2022/09/27 04:08:13;;;;;;;4.23;2.40;;;12.50;99.90;;;;;;4970536;28;21045;-71
2022/09/27 04:10:43;;;;;;;2.53;2.10;;;12.50;99.90;;;;;;4981867;28;20802;-71
2022/09/27 04:13:13;;;;;;;3.37;2.57;;;12.60;99.90;;;;;;4973352;28;20715;-71
2022/09/27 04:15:49;;;;;;;2.87;2.67;;;12.60;99.90;;;;;;4987519;28;20440;-72
2022/09/27 04:18:38;;;;;;;4.83;2.17;;;12.50;99.90;;;;;;4987382;28;20443;-70
2022/09/27 04:21:07;;;;;;;4.30;2.77;;;12.50;99.90;;;;;;4980767;28;20433;-70
2022/09/27 04:23:40;;;;;;;3.47;2.10;;;12.40;99.90;;;;;;4965533;28;21040;-71
2022/09/27 04:26:09;;;;;;;5.57;2.30;;;12.40;99.90;;;;;;4986399;28;20835;-70
2022/09/27 04:28:51;;;;;;;5.27;2.50;;;12.40;99.90;;;;;;4975900;28;20452;-72
2022/09/27 04:31:23;;;;;;;2.80;2.50;;;12.30;99.90;;;;;;4965207;28;20537;-70
2022/09/27 04:34:12;;;;;;;3.07;2.77;;;12.30;99.90;;;;;;4973131;28;20507;-70
2022/09/27 04:36:39;;;;;;;4.03;2.10;;;12.40;99.90;;;;;;4973781;28;20466;-71
2022/09/27 04:39:16;;;;;;;3.90;2.80;;;12.30;99.90;;;;;;4975265;28;20454;-71
2022/09/27 04:41:46;;;;;;;3.97;2.00;;;12.30;99.90;;;;;;4986643;28;20412;-70
2022/09/27 04:44:16;;;;;;;2.83;2.53;;;12.30;99.90;;;;;;4974279;28;20449;-71
2022/09/27 04:46:49;;;;;;;3.00;2.20;;;12.30;99.90;;;;;;4977898;28;20430;-70
2022/09/27 04:49:18;;;;;;;3.00;2.10;;;12.30;99.90;;;;;;4980885;28;20417;-70
2022/09/27 04:51:47;;;;;;;3.03;2.40;;;12.30;99.90;;;;;;4991879;28;20404;-71
2022/09/27 04:54:16;;;;;;;2.80;2.40;;;12.30;99.90;;;;;;4991609;28;20467;-70
2022/09/27 04:56:54;;;;;;;8.50;3.00;;;12.20;99.90;;;;;;4973994;28;20420;-70
2022/09/27 04:59:24;;;;;;;2.63;2.40;;;12.20;99.90;;;;;;4992816;28;20425;-71
2022/09/27 05:01:53;;;;;;;5.40;2.00;;;12.10;99.90;;;;;;4978288;28;20465;-71
2022/09/27 05:04:48;;;;;;;3.53;2.60;;;12.10;99.90;;;;;;4983599;28;20455;-70
2022/09/27 05:07:19;;;;;;;2.80;1.83;;;12.00;99.90;;;;;;4981334;28;20420;-71
2022/09/27 05:09:54;;;;;;;2.43;2.10;;;12.00;99.90;;;;;;4988924;28;20435;-70
2022/09/27 05:12:25;;;;;;;2.83;2.00;;;11.90;99.90;;;;;;4983230;28;20986;-72
2022/09/27 05:15:01;;;;;;;2.60;2.40;;;11.90;99.90;;;;;;4981380;28;20432;-69
2022/09/27 05:17:52;;;;;;;2.13;1.93;;;11.90;99.90;;;;;;4988038;28;20524;-72
2022/09/27 05:20:44;;;;;;;2.60;2.20;;;11.80;99.90;;;;;;4973831;28;21002;-70
2022/09/27 05:23:33;;;;;;;7.93;2.60;;;11.80;99.90;;;;;;4991458;28;20417;-70
2022/09/27 05:26:04;;;;;;;4.00;2.37;;;11.90;99.90;;;;;;4985081;28;21057;-68
2022/09/27 05:28:35;;;;;;;5.53;2.57;;;11.90;99.90;;;;;;4974643;28;20438;-69
2022/09/27 05:31:05;;;;;;;2.10;1.90;;;11.90;99.90;;;;;;4985506;28;20437;-70
2022/09/27 05:33:34;;;;;;;3.27;2.50;;;11.90;99.90;;;;;;4974831;28;20459;-70
2022/09/27 05:36:26;;;;;;;3.00;2.80;;;11.90;99.90;;;;;;4983792;28;20423;-71
2022/09/27 05:38:54;;;;;;;3.50;2.73;;;11.70;99.90;;;;;;4974779;28;20425;-70
2022/09/27 05:41:25;;;;;;;3.00;2.60;;;11.70;99.90;;;;;;4962635;28;20423;-70
2022/09/27 05:43:55;;;;;;;3.67;2.43;;;11.60;99.90;;;;;;4978804;28;20442;-70
2022/09/27 05:46:25;;;;;;;3.83;2.83;;;11.60;99.90;;;;;;4979331;28;20512;-70
2022/09/27 05:48:54;;;;;;;6.90;2.73;;;11.50;99.90;;;;;;4970968;28;20476;-71
2022/09/27 05:51:22;;;;;;;4.40;2.67;;;11.60;99.90;;;;;;4967732;28;20557;-71
2022/09/27 05:53:51;;;;;;;2.40;1.90;;;11.70;99.90;;;;;;4971023;28;20437;-70
2022/09/27 05:56:27;;;;;;;5.17;2.50;;;11.60;99.90;;;;;;4976737;28;20424;-71
2022/09/27 05:59:15;;;;;;;4.47;3.33;;;11.70;99.90;;;;;;4974861;28;20459;-70
2022/09/27 06:02:04;;;;;;;10.23;3.00;;;11.70;99.90;;;;;;4992266;28;20955;-70
2022/09/27 06:04:51;;;;;;;2.60;2.13;;;11.80;99.90;;;;;;4998390;28;20550;-70
2022/09/27 06:07:39;;;;;;;2.77;2.40;;;11.80;99.90;;;;;;4990034;28;20442;-71
2022/09/27 06:10:22;;;;;;;3.23;2.07;;;11.90;99.90;;;;;;4984145;28;20975;-70
2022/09/27 06:12:51;;;;;;;3.00;2.70;;;11.90;99.90;;;;;;4976478;28;20466;-70
2022/09/27 06:15:43;;;;;;;3.10;1.90;;;11.90;99.90;;;;;;4973939;28;20528;-70
2022/09/27 06:18:16;;;;;;;3.10;2.53;;;11.80;99.90;;;;;;4977931;28;20417;-70
2022/09/27 06:20:48;;;;;;;3.97;2.60;;;11.70;99.90;;;;;;4973764;28;20425;-70
2022/09/27 06:23:19;;;;;;;3.27;2.73;;;11.80;99.90;;;;;;4972862;28;20469;-69
2022/09/27 06:25:50;;;;;;;4.93;2.80;;;11.80;99.90;;;;;;4977974;28;20552;-71
2022/09/27 06:28:24;;;;;;;4.60;2.40;;;11.80;99.90;;;;;;4971927;28;20490;-71
2022/09/27 06:30:59;;;;;;;5.33;3.20;;;11.90;99.90;;;;;;4970737;28;20430;-71
2022/09/27 06:33:42;;;;;;;8.47;5.80;;;12.00;99.90;;;;;;4975539;28;20472;-70
2022/09/27 06:36:11;;;;;;;17.23;13.20;;;12.00;99.90;;;;;;4973644;28;20444;-71
2022/09/27 06:38:41;;;;;;;16.93;10.70;;;12.00;99.90;;;;;;4973346;28;20432;-71
2022/09/27 06:41:17;;;;;;;8.63;7.73;;;12.00;99.90;;;;;;4970187;28;20462;-70
2022/09/27 06:44:08;;;;;;;4.27;3.97;;;12.00;99.90;;;;;;4984243;28;21004;-71
2022/09/27 06:46:56;;;;;;;5.73;4.00;;;12.00;99.90;;;;;;4994717;28;20462;-70
2022/09/27 06:50:02;;;;;;;5.63;4.40;;;12.00;99.90;;;;;;4921084;29;20447;-70
2022/09/27 06:52:31;;;;;;;6.00;4.27;;;12.20;99.90;;;;;;4973785;28;20438;-70
2022/09/27 06:55:00;;;;;;;4.57;3.70;;;12.30;99.90;;;;;;4995470;28;20455;-70
2022/09/27 07:00:26;;;;;;;3.00;2.20;;;12.50;99.90;;;;;;4994582;28;20412;-70
2022/09/27 07:03:04;;;;;;;5.30;3.07;;;12.40;99.90;;;;;;5006329;28;20418;-70
2022/09/27 07:05:58;;;;;;;3.13;2.17;;;12.40;99.90;;;;;;4999830;28;20456;-71
2022/09/27 07:08:40;;;;;;;2.90;2.40;;;12.30;99.90;;;;;;4982653;28;20469;-69
2022/09/27 07:11:08;;;;;;;6.10;2.83;;;12.30;99.90;;;;;;4981390;28;20475;-71
2022/09/27 07:13:41;;;;;;;4.37;2.77;;;12.30;99.90;;;;;;4973763;28;20516;-69
2022/09/27 07:16:13;;;;;;;3.23;2.30;;;12.20;99.90;;;;;;4973984;28;20497;-69
2022/09/27 07:18:43;;;;;;;3.47;2.60;;;12.20;99.90;;;;;;4984811;28;20440;-70
2022/09/27 07:21:15;;;;;;;3.80;2.90;;;12.10;99.90;;;;;;4976270;28;20473;-70
2022/09/27 07:23:43;;;;;;;3.90;2.80;;;12.20;99.90;;;;;;4977046;28;20804;-70
2022/09/27 07:26:14;;;;;;;4.37;2.97;;;12.20;99.90;;;;;;4966823;28;20436;-71
2022/09/27 07:28:43;;;;;;;4.53;2.30;;;12.20;99.90;;;;;;4976105;28;20470;-70
2022/09/27 07:31:16;;;;;;;3.70;3.23;;;12.30;99.90;;;;;;4984541;28;21019;-70
2022/09/27 07:33:45;;;;;;;3.10;2.57;;;12.20;99.90;;;;;;4969587;28;20546;-70
2022/09/27 07:36:16;;;;;;;3.87;2.53;;;12.20;99.90;;;;;;4961117;28;20534;-69
2022/09/27 07:38:46;;;;;;;2.43;1.67;;;12.20;99.90;;;;;;4970010;28;20489;-69
2022/09/27 07:41:19;;;;;;;3.87;2.67;;;12.30;99.90;;;;;;4963514;28;20428;-70
2022/09/27 07:43:48;;;;;;;3.60;2.93;;;12.20;99.90;;;;;;4966890;28;20811;-71
2022/09/27 07:46:19;;;;;;;3.87;3.23;;;12.30;99.90;;;;;;4976057;28;20608;-71
2022/09/27 07:49:06;;;;;;;3.37;2.87;;;12.20;99.90;;;;;;4971139;28;20526;-70
2022/09/27 07:51:58;;;;;;;2.90;2.30;;;12.20;99.90;;;;;;4974420;28;20814;-71
2022/09/27 07:54:36;;;;;;;5.57;2.70;;;12.20;99.90;;;;;;4983670;28;20485;-70
2022/09/27 07:57:15;;;;;;;5.10;2.70;;;12.30;99.90;;;;;;4979194;28;20537;-71
2022/09/27 07:59:50;;;;;;;2.43;1.93;;;12.40;99.90;;;;;;4972648;28;20581;-70
2022/09/27 08:02:21;;;;;;;2.90;2.40;;;12.40;99.90;;;;;;4965696;28;20488;-70
2022/09/27 08:04:52;;;;;;;2.50;1.90;;;12.40;99.90;;;;;;4973410;28;20458;-71
2022/09/27 08:07:22;;;;;;;5.57;2.70;;;12.40;99.90;;;;;;4982259;28;20452;-71
2022/09/27 08:09:53;;;;;;;3.50;2.30;;;12.30;99.90;;;;;;4978462;28;20492;-71
2022/09/27 08:12:22;;;;;;;9.83;2.97;;;12.30;99.90;;;;;;4976052;28;20864;-70
2022/09/27 08:14:52;;;;;;;2.83;2.60;;;12.30;99.90;;;;;;4986837;28;20455;-70
2022/09/27 08:17:21;;;;;;;3.40;2.60;;;12.30;99.90;;;;;;4977121;28;20533;-71
2022/09/27 08:20:08;;;;;;;3.70;2.23;;;12.20;99.90;;;;;;4982375;28;20883;-71
2022/09/27 08:23:04;;;;;;;2.60;2.40;;;12.20;99.90;;;;;;4954812;28;20407;-70
2022/09/27 08:25:39;;;;;;;3.80;2.93;;;12.30;99.90;;;;;;4974621;28;20490;-70
2022/09/27 08:28:28;;;;;;;11.20;5.00;;;12.30;99.90;;;;;;4993694;28;20500;-71
2022/09/27 08:31:03;;;;;;;2.40;2.13;;;12.30;99.90;;;;;;4975895;28;20421;-71
2022/09/27 08:33:31;;;;;;;3.87;3.00;;;12.30;99.90;;;;;;4976020;28;20454;-70
2022/09/27 08:36:11;;;;;;;3.30;1.90;;;12.20;99.90;;;;;;4981308;28;20458;-70
2022/09/27 08:38:42;;;;;;;2.73;2.33;;;12.30;99.90;;;;;;4992770;28;20408;-69
2022/09/27 08:41:17;;;;;;;8.20;2.30;;;12.40;99.90;;;;;;4972082;28;20496;-70
2022/09/27 08:43:57;;;;;;;2.57;2.37;;;12.30;99.90;;;;;;4992824;28;20404;-70
2022/09/27 08:46:33;;;;;;;3.17;2.80;;;12.30;99.90;;;;;;4992620;28;20408;-69
2022/09/27 08:49:09;;;;;;;5.57;3.30;;;12.30;99.90;;;;;;4983311;28;20954;-70
2022/09/27 08:51:40;;;;;;;4.60;2.50;;;12.30;99.90;;;;;;4976436;28;20962;-69
2022/09/27 08:54:17;;;;;;;3.17;2.87;;;12.40;99.90;;;;;;4977857;28;20920;-71
2022/09/27 08:56:48;;;;;;;5.10;2.13;;;12.50;99.90;;;;;;4973485;28;20409;-70
2022/09/27 08:59:20;;;;;;;2.73;2.53;;;12.60;99.90;;;;;;4980018;28;20443;-70
2022/09/27 09:01:50;;;;;;;5.03;2.63;;;12.80;99.90;;;;;;4974511;28;20924;-70
2022/09/27 09:04:35;;;;;;;2.33;2.13;;;12.70;99.90;;;;;;4974775;28;20526;-70
2022/09/27 09:07:12;;;;;;;4.73;2.83;;;12.70;99.90;;;;;;4977206;28;20854;-70
2022/09/27 09:09:51;;;;;;;4.17;2.90;;;12.70;99.90;;;;;;4978742;28;20457;-69
2022/09/27 09:12:46;;;;;;;5.70;2.50;;;12.80;99.90;;;;;;4974728;28;20412;-70
2022/09/27 09:15:27;;;;;;;5.67;2.47;;;12.90;99.90;;;;;;4972272;28;20974;-72
2022/09/27 09:18:15;;;;;;;2.53;2.13;;;13.00;99.90;;;;;;4971756;28;20409;-71
2022/09/27 09:20:58;;;;;;;2.60;2.40;;;13.10;99.90;;;;;;4988495;28;20447;-69
2022/09/27 09:23:57;;;;;;;4.00;3.10;;;13.30;99.90;;;;;;4982590;28;20420;-70
2022/09/27 09:26:35;;;;;;;3.00;2.50;;;13.20;99.90;;;;;;4991297;28;20445;-69
2022/09/27 09:29:17;;;;;;;2.77;2.50;;;13.30;99.90;;;;;;4986975;28;20446;-71
2022/09/27 09:31:53;;;;;;;3.00;2.53;;;13.20;99.90;;;;;;4997881;28;20431;-71
2022/09/27 09:34:26;;;;;;;2.43;2.23;;;13.20;99.90;;;;;;4989721;28;20424;-70
2022/09/27 09:37:00;;;;;;;4.33;2.80;;;13.30;99.90;;;;;;4974985;28;20931;-70
2022/09/27 09:39:36;;;;;;;5.33;3.00;;;13.20;99.90;;;;;;4979036;28;20488;-70
2022/09/27 09:42:13;;;;;;;3.10;2.80;;;13.20;99.90;;;;;;4992225;28;20415;-71
2022/09/27 09:44:53;;;;;;;4.93;2.90;;;13.40;99.90;;;;;;4963192;28;20968;-71
2022/09/27 09:47:32;;;;;;;5.03;2.60;;;13.50;99.90;;;;;;4976015;28;20466;-70
2022/09/27 09:50:04;;;;;;;2.57;2.37;;;13.70;99.90;;;;;;4968019;28;20968;-70
2022/09/27 09:52:42;;;;;;;4.70;3.97;;;13.90;99.90;;;;;;4990501;28;20423;-70
2022/09/27 09:55:19;;;;;;;4.67;3.40;;;13.90;99.90;;;;;;4977782;28;20466;-70
2022/09/27 09:58:04;;;;;;;5.50;3.40;;;14.10;99.90;;;;;;4969610;28;20463;-71
2022/09/27 10:00:43;;;;;;;6.53;3.37;;;14.10;99.90;;;;;;4973530;28;20512;-70
2022/09/27 10:03:12;;;;;;;2.90;2.63;;;13.80;99.90;;;;;;4990927;28;20400;-71
2022/09/27 10:05:44;;;;;;;3.30;3.00;;;13.80;99.90;;;;;;4967302;28;20432;-70
2022/09/27 10:08:18;;;;;;;3.23;2.90;;;13.90;99.90;;;;;;4985259;28;20489;-70
2022/09/27 10:10:51;;;;;;;4.47;3.13;;;14.00;99.90;;;;;;4972730;28;20444;-70
2022/09/27 10:13:50;;;;;;;2.87;2.60;;;14.20;99.90;;;;;;4970906;28;20464;-69
2022/09/27 10:16:21;;;;;;;3.53;3.23;;;14.30;99.90;;;;;;4972553;28;20476;-71
2022/09/27 10:18:56;;;;;;;4.00;2.97;;;14.50;99.90;;;;;;4970152;28;20538;-71
2022/09/27 10:21:28;;;;;;;4.73;3.53;;;14.60;99.90;;;;;;4978650;28;20412;-71
2022/09/27 10:24:12;;;;;;;3.30;3.00;;;14.70;99.90;;;;;;4972940;28;20464;-72
2022/09/27 10:27:04;;;;;;;2.47;2.27;;;14.70;99.90;;;;;;4990008;28;20426;-69
2022/09/27 10:29:38;;;;;;;3.57;2.90;;;14.80;99.90;;;;;;4974753;28;20644;-71
2022/09/27 10:32:26;;;;;;;3.93;3.63;;;15.00;99.90;;;;;;4984112;28;20477;-71
2022/09/27 10:35:21;;;;;;;5.90;3.03;;;15.10;99.90;;;;;;4986381;28;20513;-71
2022/09/27 10:37:52;;;;;;;3.13;2.70;;;15.00;99.90;;;;;;4969746;28;20471;-70
2022/09/27 10:40:29;;;;;;;3.63;3.20;;;14.70;99.90;;;;;;4976517;28;20445;-71
2022/09/27 10:42:59;;;;;;;4.37;3.53;;;14.50;99.90;;;;;;4979922;28;20669;-70
2022/09/27 10:45:47;;;;;;;3.83;3.37;;;14.30;99.90;;;;;;4975632;28;20436;-71
2022/09/27 10:48:22;;;;;;;3.63;3.33;;;14.10;99.90;;;;;;4989709;28;20832;-72
2022/09/27 10:50:59;;;;;;;5.20;3.53;;;13.90;99.90;;;;;;4982654;28;20446;-72
2022/09/27 10:53:48;;;;;;;3.50;3.20;;;13.80;99.90;;;;;;4986790;28;20437;-71
2022/09/27 10:56:29;;;;;;;3.20;2.90;;;13.90;99.90;;;;;;4979648;28;20484;-70
2022/09/27 10:58:59;;;;;;;7.37;4.20;;;14.00;99.90;;;;;;4972376;28;20445;-71
2022/09/27 11:01:40;;;;;;;6.10;3.80;;;14.30;99.90;;;;;;4982694;28;20481;-70
2022/09/27 11:04:23;;;;;;;4.20;2.93;;;14.60;99.90;;;;;;4970073;28;20469;-71
2022/09/27 11:06:52;;;;;;;4.00;3.23;;;14.90;99.90;;;;;;4977646;28;20445;-71
2022/09/27 11:09:25;;;;;;;5.10;2.40;;;14.70;99.90;;;;;;4982052;28;20522;-70
2022/09/27 11:12:11;;;;;;;4.83;3.57;;;14.70;99.90;;;;;;4976888;28;20456;-69
2022/09/27 11:14:42;;;;;;;6.80;3.57;;;14.60;99.90;;;;;;4960358;28;20497;-71
2022/09/27 11:17:19;;;;;;;3.43;2.83;;;14.20;99.90;;;;;;4970879;28;20553;-70
2022/09/27 11:20:12;;;;;;;3.80;2.93;;;14.20;99.90;;;;;;4976290;28;20449;-71
2022/09/27 11:23:16;;;;;;;4.60;3.10;;;14.10;99.90;;;;;;4982402;28;20485;-70
2022/09/27 11:25:59;;;;;;;4.27;3.63;;;14.00;99.90;;;;;;4967427;28;20457;-70
2022/09/27 11:28:38;;;;;;;4.43;3.53;;;14.00;99.90;;;;;;4977784;28;20492;-70
2022/09/27 11:31:23;;;;;;;3.33;3.03;;;14.00;99.90;;;;;;4970847;28;20423;-71
2022/09/27 11:34:21;;;;;;;5.10;3.30;;;13.90;99.90;;;;;;4966770;28;20421;-72
2022/09/27 11:37:08;;;;;;;3.77;2.77;;;14.00;99.90;;;;;;4985781;28;20544;-71
2022/09/27 11:39:51;;;;;;;7.60;3.73;;;13.90;99.90;;;;;;4987781;28;20451;-71
2022/09/27 11:42:52;;;;;;;4.17;3.23;;;14.10;99.90;;;;;;4970097;28;20420;-71
2022/09/27 11:45:32;;;;;;;4.10;3.27;;;14.50;99.90;;;;;;4978268;28;20544;-70
2022/09/27 11:48:45;;;;;;;9.60;4.30;;;14.30;99.90;;;;;;4978998;28;20441;-70
2022/09/27 11:51:30;;;;;;;5.80;5.20;;;14.30;99.90;;;;;;4987223;28;20488;-71
2022/09/27 11:57:00;;;;;;;1.13;0.87;;;13.40;99.90;;;;;;4974584;28;20494;-69
2022/09/27 12:00:03;;;;;;;1.10;0.60;;;12.80;99.90;;;;;;4981529;28;20516;-69
2022/09/27 12:02:59;;;;;;;2.50;0.90;;;12.30;99.90;;;;;;4983980;28;20477;-68
2022/09/27 12:05:36;;;;;;;1.53;0.70;;;11.70;99.90;;;;;;4979138;28;20473;-69
2022/09/27 12:08:27;;;;;;;1.37;0.97;;;11.50;99.90;;;;;;4976768;28;20884;-69
2022/09/27 12:11:05;;;;;;;2.03;0.90;;;11.40;99.90;;;;;;4988815;28;20442;-70
2022/09/27 12:13:38;;;;;;;1.40;1.00;;;11.30;99.90;;;;;;4974591;28;20435;-68
2022/09/27 12:16:07;;;;;;;3.50;1.90;;;11.30;99.90;;;;;;4967629;28;20997;-70
2022/09/27 12:18:41;;;;;;;1.70;0.93;;;11.30;99.90;;;;;;4979498;28;20430;-69
2022/09/27 12:21:35;;;;;;;10.17;5.33;;;11.30;99.90;;;;;;4965931;28;20420;-69
2022/09/27 12:24:05;;;;;;;1.83;1.30;;;11.40;99.90;;;;;;4958931;28;20996;-69
2022/09/27 12:26:41;;;;;;;1.37;1.00;;;11.50;99.90;;;;;;4975583;28;20454;-67
2022/09/27 12:29:15;;;;;;;1.93;1.40;;;11.50;99.90;;;;;;4959161;28;20429;-68
2022/09/27 12:31:51;;;;;;;1.73;1.10;;;11.60;99.90;;;;;;4978794;28;20449;-67
2022/09/27 12:34:23;;;;;;;2.33;1.77;;;11.60;99.90;;;;;;4976530;28;20827;-69
2022/09/27 12:36:59;;;;;;;3.13;2.53;;;11.60;99.90;;;;;;4976271;28;20800;-69
2022/09/27 12:39:40;;;;;;;2.20;1.70;;;11.80;99.90;;;;;;4958932;28;20455;-69
2022/09/27 12:42:34;;;;;;;3.40;1.53;;;12.00;99.90;;;;;;4984814;28;20860;-69
2022/09/27 12:45:12;;;;;;;2.33;1.50;;;12.10;99.90;;;;;;4981771;28;20944;-69
2022/09/27 12:47:55;;;;;;;4.10;1.70;;;12.20;99.90;;;;;;4981239;28;20786;-69
2022/09/27 12:50:32;;;;;;;5.03;3.10;;;12.70;99.90;;;;;;4968780;28;20516;-68
2022/09/27 12:53:05;;;;;;;3.50;2.10;;;13.30;99.90;;;;;;4981762;28;20872;-68
2022/09/27 12:55:55;;;;;;;2.53;1.70;;;14.00;99.90;;;;;;4981344;28;20467;-69
2022/09/27 12:59:05;;;;;;;2.80;1.33;;;14.30;99.90;;;;;;4982878;28;20520;-69
2022/09/27 13:02:05;;;;;;;2.37;1.50;;;14.50;99.90;;;;;;4979547;28;20416;-69
2022/09/27 13:05:00;;;;;;;3.63;1.77;;;14.10;99.90;;;;;;4960306;28;20490;-69
2022/09/27 13:07:42;;;;;;;1.70;1.30;;;14.10;99.90;;;;;;4980039;28;20533;-69
2022/09/27 13:10:25;;;;;;;3.13;2.70;;;13.90;99.90;;;;;;4973054;28;20474;-68
2022/09/27 13:13:25;;;;;;;2.40;1.87;;;13.90;99.90;;;;;;4973936;28;20758;-68
2022/09/27 13:15:57;;;;;;;3.80;1.80;;;13.70;99.90;;;;;;4974381;28;20473;-69
2022/09/27 13:18:34;;;;;;;3.17;1.80;;;13.80;99.90;;;;;;4974573;28;20448;-69
2022/09/27 13:21:05;;;;;;;1.70;1.37;;;14.10;99.90;;;;;;4970168;28;20430;-69
2022/09/27 13:23:51;;;;;;;2.23;1.37;;;14.20;99.90;;;;;;4976843;28;20530;-68
2022/09/27 13:26:39;;;;;;;2.30;1.63;;;14.10;99.90;;;;;;4977876;28;20501;-69
2022/09/27 13:29:21;;;;;;;3.40;1.53;;;13.80;99.90;;;;;;4968281;28;20448;-69
2022/09/27 13:32:20;;;;;;;3.67;1.90;;;13.60;99.90;;;;;;4961526;28;21026;-68
2022/09/27 13:35:23;;;;;;;2.10;1.43;;;13.30;99.90;;;;;;4950634;28;20441;-68
2022/09/27 13:38:20;;;;;;;4.27;1.67;;;13.00;99.90;;;;;;4983376;28;21001;-68
2022/09/27 13:40:50;;;;;;;2.20;1.20;;;12.70;99.90;;;;;;4963663;28;20405;-68
2022/09/27 13:43:48;;;;;;;3.50;1.60;;;12.60;99.90;;;;;;4975441;28;20776;-68
2022/09/27 13:46:29;;;;;;;2.00;1.30;;;12.50;99.90;;;;;;4974134;28;20508;-68
2022/09/27 13:48:59;;;;;;;6.90;1.73;;;12.40;99.90;;;;;;4980334;28;20433;-69